createdAt,value
2018-08-28T00:01:53.940Z,20.40
2018-08-28T00:04:22.232Z,20.40
2018-08-28T00:06:50.453Z,20.50
2018-08-28T00:09:18.741Z,20.50
2018-08-28T00:11:47.334Z,20.40
2018-08-28T00:14:15.578Z,20.50
2018-08-28T00:16:43.966Z,20.50
2018-08-28T00:19:12.237Z,20.50
2018-08-28T00:21:40.582Z,20.50
2018-08-28T00:24:08.834Z,20.50
2018-08-28T00:26:37.037Z,20.40
2018-08-28T00:29:05.330Z,20.40
2018-08-28T00:31:33.610Z,20.40
2018-08-28T00:34:02.278Z,20.40
2018-08-28T00:36:30.514Z,20.40
2018-08-28T00:38:58.835Z,20.40
2018-08-28T00:41:27.162Z,20.40
2018-08-28T00:43:55.424Z,20.40
2018-08-28T00:46:23.712Z,20.30
2018-08-28T00:48:51.954Z,20.30
2018-08-28T00:51:20.295Z,20.40
2018-08-28T00:53:48.569Z,20.30
2018-08-28T00:56:16.790Z,20.30
2018-08-28T00:58:45.071Z,20.30
2018-08-28T01:01:13.310Z,20.20
2018-08-28T01:03:41.588Z,20.20
2018-08-28T01:06:09.932Z,20.00
2018-08-28T01:08:38.246Z,20.00
2018-08-28T01:11:07.406Z,19.90
2018-08-28T01:13:35.635Z,19.90
2018-08-28T01:16:03.861Z,19.90
2018-08-28T01:18:32.122Z,19.80
2018-08-28T01:21:00.353Z,19.80
2018-08-28T01:23:28.557Z,19.70
2018-08-28T01:25:56.787Z,19.70
2018-08-28T01:28:25.011Z,19.70
2018-08-28T01:30:53.262Z,19.70
2018-08-28T01:33:21.561Z,19.60
2018-08-28T01:35:49.809Z,19.60
2018-08-28T01:38:17.994Z,19.40
2018-08-28T01:40:46.243Z,19.40
2018-08-28T01:43:19.837Z,19.40
2018-08-28T01:45:48.077Z,19.40
2018-08-28T01:48:16.293Z,19.40
2018-08-28T01:50:44.496Z,19.30
2018-08-28T01:53:12.749Z,19.30
2018-08-28T01:55:41.130Z,19.30
2018-08-28T01:58:09.353Z,19.20
2018-08-28T02:00:37.632Z,19.20
2018-08-28T02:03:05.924Z,19.20
2018-08-28T02:05:34.189Z,19.20
2018-08-28T02:08:02.405Z,19.20
2018-08-28T02:10:30.638Z,19.20
2018-08-28T02:12:58.855Z,19.10
2018-08-28T02:15:27.065Z,19.10
2018-08-28T02:17:55.296Z,19.00
2018-08-28T02:20:23.566Z,19.00
2018-08-28T02:22:51.817Z,19.00
2018-08-28T02:25:20.016Z,18.90
2018-08-28T02:27:48.247Z,18.90
2018-08-28T02:30:16.467Z,18.90
2018-08-28T02:32:44.684Z,18.90
2018-08-28T02:35:12.914Z,18.90
2018-08-28T02:37:41.126Z,18.90
2018-08-28T02:40:09.386Z,18.80
2018-08-28T02:42:37.575Z,18.90
2018-08-28T02:45:07.049Z,18.90
2018-08-28T02:47:35.278Z,18.90
2018-08-28T02:50:03.542Z,18.90
2018-08-28T02:52:31.772Z,18.80
2018-08-28T02:54:59.982Z,18.80
2018-08-28T02:57:28.205Z,18.80
2018-08-28T02:59:56.425Z,18.80
2018-08-28T03:02:24.655Z,18.70
2018-08-28T03:04:52.878Z,18.70
2018-08-28T03:07:21.120Z,18.60
2018-08-28T03:09:49.313Z,18.60
2018-08-28T03:12:17.530Z,18.60
2018-08-28T03:14:45.801Z,18.60
2018-08-28T03:17:14.025Z,18.60
2018-08-28T03:19:42.283Z,18.60
2018-08-28T03:22:10.609Z,18.60
2018-08-28T03:24:38.826Z,18.60
2018-08-28T03:27:07.227Z,18.60
2018-08-28T03:29:35.443Z,18.60
2018-08-28T03:32:03.738Z,18.60
2018-08-28T03:34:32.014Z,18.50
2018-08-28T03:37:00.243Z,18.50
2018-08-28T03:39:28.502Z,18.50
2018-08-28T03:41:56.742Z,18.50
2018-08-28T03:44:24.951Z,18.40
2018-08-28T03:46:54.252Z,18.40
2018-08-28T03:49:22.469Z,18.40
2018-08-28T03:51:50.666Z,18.30
2018-08-28T03:54:18.950Z,18.30
2018-08-28T03:56:47.168Z,18.30
2018-08-28T03:59:15.546Z,18.30
2018-08-28T04:01:43.811Z,18.30
2018-08-28T04:04:12.058Z,18.30
2018-08-28T04:06:40.309Z,18.30
2018-08-28T04:09:09.032Z,18.20
2018-08-28T04:11:37.241Z,18.20
2018-08-28T04:14:05.470Z,18.10
2018-08-28T04:16:33.726Z,18.10
2018-08-28T04:19:02.114Z,18.10
2018-08-28T04:21:30.363Z,18.10
2018-08-28T04:23:58.590Z,18.10
2018-08-28T04:26:26.811Z,18.10
2018-08-28T04:28:55.022Z,18.10
2018-08-28T04:31:23.774Z,18.10
2018-08-28T04:33:52.050Z,18.10
2018-08-28T04:36:20.278Z,18.10
2018-08-28T04:38:48.518Z,18.10
2018-08-28T04:41:16.768Z,18.00
2018-08-28T04:43:45.027Z,18.00
2018-08-28T04:46:13.254Z,18.00
2018-08-28T04:48:41.595Z,18.00
2018-08-28T04:51:09.781Z,18.00
2018-08-28T04:53:37.984Z,18.00
2018-08-28T04:56:06.273Z,18.00
2018-08-28T04:58:34.494Z,18.00
2018-08-28T05:01:02.750Z,18.00
2018-08-28T05:03:30.999Z,18.00
2018-08-28T05:05:59.279Z,18.00
2018-08-28T05:08:27.506Z,18.10
2018-08-28T05:10:55.769Z,18.10
2018-08-28T05:13:24.094Z,18.10
2018-08-28T05:15:52.335Z,18.10
2018-08-28T05:18:20.619Z,18.10
2018-08-28T05:20:48.942Z,18.10
2018-08-28T05:23:17.235Z,18.10
2018-08-28T05:25:45.467Z,18.10
2018-08-28T05:28:14.083Z,18.10
2018-08-28T05:30:42.442Z,18.20
2018-08-28T05:33:10.682Z,18.20
2018-08-28T05:35:40.012Z,18.20
2018-08-28T05:38:08.606Z,18.20
2018-08-28T05:40:36.888Z,18.30
2018-08-28T05:43:11.697Z,18.40
2018-08-28T05:45:40.099Z,18.40
2018-08-28T05:48:08.610Z,18.50
2018-08-28T05:50:36.896Z,18.60
2018-08-28T05:53:05.323Z,18.60
2018-08-28T05:55:33.589Z,18.70
2018-08-28T05:58:02.046Z,18.70
2018-08-28T06:00:30.414Z,18.80
2018-08-28T06:02:58.734Z,18.90
2018-08-28T06:05:26.903Z,19.00
2018-08-28T06:07:55.186Z,19.10
2018-08-28T06:10:23.464Z,19.20
2018-08-28T06:12:51.725Z,19.30
2018-08-28T06:15:20.100Z,19.40
2018-08-28T06:17:48.410Z,19.40
2018-08-28T06:20:16.800Z,19.50
2018-08-28T06:22:45.367Z,19.50
2018-08-28T06:25:13.694Z,19.50
2018-08-28T06:27:41.958Z,19.40
2018-08-28T06:30:10.218Z,19.40
2018-08-28T06:32:38.442Z,19.50
2018-08-28T06:35:07.014Z,19.40
2018-08-28T06:37:35.275Z,19.50
2018-08-28T06:40:03.520Z,19.60
2018-08-28T06:42:31.759Z,19.70
2018-08-28T06:45:00.016Z,19.70
2018-08-28T06:47:28.276Z,19.80
2018-08-28T06:49:56.515Z,19.90
2018-08-28T06:52:24.744Z,20.00
2018-08-28T06:54:53.634Z,20.00
2018-08-28T06:57:21.898Z,20.00
2018-08-28T06:59:50.198Z,20.00
2018-08-28T07:02:19.065Z,20.00
2018-08-28T07:04:47.507Z,20.10
2018-08-28T07:07:16.025Z,20.20
2018-08-28T07:09:44.380Z,20.20
2018-08-28T07:12:13.746Z,20.20
2018-08-28T07:14:42.802Z,20.30
2018-08-28T07:17:11.612Z,20.40
2018-08-28T07:19:40.735Z,20.50
2018-08-28T07:22:09.785Z,20.60
2018-08-28T07:24:39.073Z,20.70
2018-08-28T07:27:07.477Z,20.70
2018-08-28T07:29:35.741Z,20.80
2018-08-28T07:32:04.391Z,20.90
2018-08-28T07:34:33.449Z,20.90
2018-08-28T07:37:01.939Z,21.00
2018-08-28T07:39:30.415Z,21.10
2018-08-28T07:41:58.984Z,21.10
2018-08-28T07:44:27.498Z,21.20
2018-08-28T07:46:56.303Z,21.30
2018-08-28T07:49:25.011Z,21.30
2018-08-28T07:51:53.438Z,21.30
2018-08-28T07:54:21.705Z,21.30
2018-08-28T07:56:50.259Z,21.40
2018-08-28T07:59:19.057Z,21.40
2018-08-28T08:01:47.349Z,21.50
2018-08-28T08:04:15.643Z,21.50
2018-08-28T08:06:43.903Z,21.60
2018-08-28T08:09:12.496Z,21.60
2018-08-28T08:11:40.770Z,21.70
2018-08-28T08:14:08.994Z,21.80
2018-08-28T08:16:37.257Z,22.00
2018-08-28T08:19:05.545Z,22.20
2018-08-28T08:21:33.777Z,22.40
2018-08-28T08:24:02.497Z,22.40
2018-08-28T08:26:30.798Z,22.50
2018-08-28T08:28:59.159Z,22.90
2018-08-28T08:31:27.490Z,23.80
2018-08-28T08:33:55.755Z,24.30
2018-08-28T08:36:24.038Z,24.50
2018-08-28T08:38:52.267Z,24.40
2018-08-28T08:41:20.575Z,24.30
2018-08-28T08:43:48.735Z,24.00
2018-08-28T08:46:16.974Z,23.60
2018-08-28T08:48:45.179Z,23.40
2018-08-28T08:51:13.529Z,23.20
2018-08-28T08:53:42.454Z,23.10
2018-08-28T08:56:10.751Z,23.00
2018-08-28T08:58:39.016Z,23.00
2018-08-28T09:01:07.299Z,23.10
2018-08-28T09:03:35.552Z,23.10
2018-08-28T09:06:04.300Z,23.10
2018-08-28T09:08:32.537Z,23.10
2018-08-28T09:11:00.831Z,23.20
2018-08-28T09:13:29.367Z,23.30
2018-08-28T09:15:57.585Z,23.20
2018-08-28T09:18:25.846Z,23.20
2018-08-28T09:20:54.066Z,23.20
2018-08-28T09:23:22.366Z,23.20
2018-08-28T09:25:50.665Z,23.30
2018-08-28T09:28:18.934Z,23.30
2018-08-28T09:30:47.754Z,23.30
2018-08-28T09:33:15.986Z,23.30
2018-08-28T09:35:44.187Z,23.30
2018-08-28T09:38:12.538Z,23.30
2018-08-28T09:40:40.737Z,23.40
2018-08-28T09:43:09.041Z,23.50
2018-08-28T09:45:38.149Z,23.80
2018-08-28T09:48:06.414Z,23.90
2018-08-28T09:50:34.680Z,23.90
2018-08-28T09:53:02.922Z,24.00
2018-08-28T09:55:31.283Z,24.00
2018-08-28T09:57:59.519Z,24.10
2018-08-28T10:00:28.954Z,24.10
2018-08-28T10:02:58.219Z,24.10
2018-08-28T10:05:26.502Z,24.10
2018-08-28T10:07:54.833Z,24.10
2018-08-28T10:10:22.949Z,24.10
2018-08-28T10:12:51.193Z,24.10
2018-08-28T10:15:19.462Z,23.90
2018-08-28T10:17:47.682Z,24.00
2018-08-28T10:20:15.902Z,24.10
2018-08-28T10:22:44.588Z,24.20
2018-08-28T10:25:12.833Z,24.20
2018-08-28T10:27:41.073Z,24.20
2018-08-28T10:30:09.336Z,24.20
2018-08-28T10:32:37.657Z,24.20
2018-08-28T10:35:05.937Z,24.20
2018-08-28T10:37:34.153Z,24.30
2018-08-28T10:40:02.423Z,24.40
2018-08-28T10:42:30.681Z,24.50
2018-08-28T10:44:58.882Z,24.50
2018-08-28T10:47:27.095Z,24.50
2018-08-28T10:49:55.375Z,24.70
2018-08-28T10:52:23.666Z,24.90
2018-08-28T10:54:51.877Z,24.90
2018-08-28T10:57:20.268Z,25.00
2018-08-28T10:59:49.308Z,25.00
2018-08-28T11:02:17.556Z,25.20
2018-08-28T11:04:45.958Z,25.30
2018-08-28T11:07:14.235Z,25.30
2018-08-28T11:09:42.642Z,25.30
2018-08-28T11:12:10.879Z,25.30
2018-08-28T11:14:39.455Z,25.40
2018-08-28T11:17:08.022Z,25.50
2018-08-28T11:19:36.310Z,25.40
2018-08-28T11:22:04.571Z,25.40
2018-08-28T11:24:32.855Z,25.40
2018-08-28T11:27:01.132Z,25.30
2018-08-28T11:29:29.370Z,25.30
2018-08-28T11:31:57.723Z,25.30
2018-08-28T11:34:26.031Z,25.20
2018-08-28T11:36:54.654Z,25.00
2018-08-28T11:39:22.910Z,24.90
2018-08-28T11:41:51.230Z,24.90
2018-08-28T11:44:19.479Z,24.90
2018-08-28T11:46:47.683Z,24.90
2018-08-28T11:49:15.933Z,24.80
2018-08-28T11:51:44.604Z,24.80
2018-08-28T11:54:12.820Z,24.80
2018-08-28T11:56:41.265Z,25.00
2018-08-28T11:59:10.244Z,25.10
2018-08-28T12:01:38.982Z,25.10
2018-08-28T12:04:08.077Z,25.20
2018-08-28T12:06:36.537Z,25.30
2018-08-28T12:09:05.985Z,25.30
2018-08-28T12:11:34.194Z,25.20
2018-08-28T12:14:02.402Z,25.30
2018-08-28T12:16:30.694Z,25.40
2018-08-28T12:18:58.914Z,25.40
2018-08-28T12:21:27.170Z,25.40
2018-08-28T12:23:55.538Z,25.40
2018-08-28T12:26:23.901Z,25.40
2018-08-28T12:28:52.164Z,25.30
2018-08-28T12:31:20.815Z,25.30
2018-08-28T12:33:49.212Z,25.40
2018-08-28T12:36:17.486Z,25.40
2018-08-28T12:38:45.746Z,25.40
2018-08-28T12:41:13.961Z,25.50
2018-08-28T12:43:42.194Z,25.50
2018-08-28T12:46:10.544Z,25.60
2018-08-28T12:48:38.718Z,25.60
2018-08-28T12:51:07.114Z,25.60
2018-08-28T12:53:35.282Z,25.60
2018-08-28T12:56:04.422Z,25.70
2018-08-28T12:58:32.723Z,25.70
2018-08-28T13:01:00.956Z,25.70
2018-08-28T13:03:29.184Z,25.60
2018-08-28T13:05:57.451Z,25.60
2018-08-28T13:08:25.672Z,25.70
2018-08-28T13:10:53.913Z,25.70
2018-08-28T13:13:22.154Z,25.80
2018-08-28T13:15:50.469Z,25.90
2018-08-28T13:18:18.768Z,25.90
2018-08-28T13:20:48.313Z,26.00
2018-08-28T13:23:16.754Z,26.00
2018-08-28T13:25:46.282Z,26.10
2018-08-28T13:28:14.524Z,26.10
2018-08-28T13:30:42.793Z,26.10
2018-08-28T13:33:11.193Z,26.10
2018-08-28T13:35:39.647Z,26.10
2018-08-28T13:38:08.030Z,26.10
2018-08-28T13:40:36.292Z,26.10
2018-08-28T13:43:04.782Z,26.10
2018-08-28T13:45:34.157Z,26.10
2018-08-28T13:48:02.562Z,26.10
2018-08-28T13:50:30.902Z,26.10
2018-08-28T13:52:59.204Z,26.10
2018-08-28T13:55:27.426Z,26.10
2018-08-28T13:57:55.664Z,26.20
2018-08-28T14:00:23.905Z,26.30
2018-08-28T14:02:52.132Z,26.30
2018-08-28T14:05:20.382Z,26.30
2018-08-28T14:07:48.697Z,26.30
2018-08-28T14:10:17.032Z,26.40
2018-08-28T14:12:45.312Z,26.50
2018-08-28T14:15:13.775Z,26.50
2018-08-28T14:17:41.998Z,26.50
2018-08-28T14:20:10.322Z,26.50
2018-08-28T14:22:38.730Z,26.40
2018-08-28T14:25:07.051Z,26.40
2018-08-28T14:27:35.282Z,26.40
2018-08-28T14:30:03.595Z,26.30
2018-08-28T14:32:31.827Z,26.30
2018-08-28T14:35:00.083Z,26.30
2018-08-28T14:37:28.308Z,26.30
2018-08-28T14:42:46.427Z,26.40
2018-08-28T14:45:14.569Z,26.50
2018-08-28T14:47:42.994Z,26.50
2018-08-28T14:50:12.394Z,26.50
2018-08-28T14:52:40.928Z,26.60
2018-08-28T14:55:09.212Z,26.60
2018-08-28T14:57:37.465Z,26.60
2018-08-28T15:00:06.611Z,26.50
2018-08-28T15:02:34.974Z,26.60
2018-08-28T15:05:03.225Z,26.60
2018-08-28T15:07:31.478Z,26.60
2018-08-28T15:09:59.894Z,26.60
2018-08-28T15:12:28.870Z,26.60
2018-08-28T15:14:57.097Z,26.60
2018-08-28T15:17:25.398Z,26.50
2018-08-28T15:19:53.674Z,26.50
2018-08-28T15:22:21.967Z,26.50
2018-08-28T15:24:50.222Z,26.50
2018-08-28T15:27:18.484Z,26.50
2018-08-28T15:29:46.811Z,26.40
2018-08-28T15:32:15.064Z,26.40
2018-08-28T15:34:43.343Z,26.40
2018-08-28T15:37:11.755Z,26.40
2018-08-28T15:39:39.978Z,26.40
2018-08-28T15:42:08.224Z,26.40
2018-08-28T15:44:36.699Z,26.40
2018-08-28T15:47:05.087Z,26.40
2018-08-28T15:49:33.344Z,26.40
2018-08-28T15:52:01.620Z,26.30
2018-08-28T15:54:29.911Z,26.30
2018-08-28T15:56:58.174Z,26.30
2018-08-28T15:59:27.033Z,26.30
2018-08-28T16:01:55.436Z,26.30
2018-08-28T16:04:23.701Z,26.30
2018-08-28T16:06:52.590Z,26.40
2018-08-28T16:09:20.987Z,26.30
2018-08-28T16:11:49.311Z,26.30
2018-08-28T16:14:17.531Z,26.30
2018-08-28T16:16:47.492Z,26.30
2018-08-28T16:19:15.906Z,26.30
2018-08-28T16:21:50.539Z,26.20
2018-08-28T16:24:18.946Z,26.20
2018-08-28T16:26:47.398Z,26.20
2018-08-28T16:29:15.739Z,26.10
2018-08-28T16:31:44.050Z,26.10
2018-08-28T16:34:12.274Z,26.10
2018-08-28T16:36:40.735Z,26.00
2018-08-28T16:39:09.891Z,26.00
2018-08-28T16:41:38.298Z,26.00
2018-08-28T16:44:07.188Z,25.90
2018-08-28T16:46:35.832Z,25.90
2018-08-28T16:49:04.069Z,25.90
2018-08-28T16:51:32.306Z,25.80
2018-08-28T16:54:00.805Z,25.70
2018-08-28T16:56:29.014Z,25.70
2018-08-28T16:58:57.374Z,25.70
2018-08-28T17:01:25.719Z,25.70
2018-08-28T17:03:53.934Z,25.70
2018-08-28T17:06:22.339Z,25.70
2018-08-28T17:08:50.600Z,25.70
2018-08-28T17:11:19.642Z,25.70
2018-08-28T17:13:47.870Z,25.60
2018-08-28T17:16:16.157Z,25.60
2018-08-28T17:18:44.513Z,25.60
2018-08-28T17:21:12.785Z,25.50
2018-08-28T17:23:41.050Z,25.50
2018-08-28T17:26:09.333Z,25.50
2018-08-28T17:28:37.593Z,25.50
2018-08-28T17:31:06.024Z,25.50
2018-08-28T17:33:34.266Z,25.40
2018-08-28T17:36:02.576Z,25.40
2018-08-28T17:38:30.823Z,25.30
2018-08-28T17:40:59.167Z,25.20
2018-08-28T17:43:27.403Z,25.20
2018-08-28T17:45:55.732Z,25.10
2018-08-28T17:48:30.727Z,25.10
2018-08-28T17:50:58.995Z,25.00
2018-08-28T17:53:27.222Z,24.90
2018-08-28T17:55:55.464Z,24.90
2018-08-28T17:58:23.714Z,24.90
2018-08-28T18:00:51.969Z,24.80
2018-08-28T18:03:20.211Z,24.80
2018-08-28T18:05:48.446Z,24.70
2018-08-28T18:08:28.459Z,24.60
2018-08-28T18:10:57.285Z,24.60
2018-08-28T18:13:25.518Z,24.60
2018-08-28T18:15:53.757Z,24.50
2018-08-28T18:18:22.030Z,24.50
2018-08-28T18:20:50.319Z,24.50
2018-08-28T18:23:18.545Z,24.50
2018-08-28T18:25:46.866Z,24.40
2018-08-28T18:28:15.082Z,24.30
2018-08-28T18:30:43.307Z,24.30
2018-08-28T18:33:11.548Z,24.20
2018-08-28T18:35:39.805Z,24.20
2018-08-28T18:38:08.211Z,24.20
2018-08-28T18:40:36.499Z,24.10
2018-08-28T18:43:04.682Z,24.10
2018-08-28T18:45:32.972Z,24.00
2018-08-28T18:48:01.202Z,24.00
2018-08-28T18:50:29.406Z,23.90
2018-08-28T18:52:57.648Z,23.90
2018-08-28T18:55:25.885Z,23.90
2018-08-28T18:57:54.169Z,23.80
2018-08-28T19:00:22.387Z,23.80
2018-08-28T19:02:50.660Z,23.80
2018-08-28T19:05:18.895Z,23.80
2018-08-28T19:07:47.147Z,23.80
2018-08-28T19:10:15.372Z,23.70
2018-08-28T19:12:43.574Z,23.70
2018-08-28T19:15:11.819Z,23.70
2018-08-28T19:17:40.097Z,23.60
2018-08-28T19:20:08.385Z,23.70
2018-08-28T19:22:36.691Z,23.60
2018-08-28T19:25:04.914Z,23.60
2018-08-28T19:27:33.144Z,23.60
2018-08-28T19:30:01.342Z,23.50
2018-08-28T19:32:29.612Z,23.50
2018-08-28T19:34:57.866Z,23.40
2018-08-28T19:37:26.634Z,23.40
2018-08-28T19:39:54.876Z,23.40
2018-08-28T19:42:23.106Z,23.40
2018-08-28T19:44:54.341Z,23.30
2018-08-28T19:47:22.602Z,23.30
2018-08-28T19:49:50.847Z,23.30
2018-08-28T19:52:19.021Z,23.20
2018-08-28T19:54:47.242Z,23.20
2018-08-28T19:57:15.538Z,23.10
2018-08-28T19:59:43.914Z,23.10
2018-08-28T20:02:12.160Z,23.10
2018-08-28T20:04:40.374Z,23.10
2018-08-28T20:07:08.643Z,23.00
2018-08-28T20:09:36.966Z,23.00
2018-08-28T20:12:05.335Z,23.00
2018-08-28T20:14:33.655Z,22.90
2018-08-28T20:17:01.801Z,22.90
2018-08-28T20:19:30.013Z,22.80
2018-08-28T20:21:58.234Z,22.80
2018-08-28T20:24:26.657Z,22.80
2018-08-28T20:26:54.946Z,22.80
2018-08-28T20:29:23.158Z,22.70
2018-08-28T20:31:51.500Z,22.70
2018-08-28T20:34:19.758Z,22.70
2018-08-28T20:36:48.043Z,22.60
2018-08-28T20:39:16.308Z,22.60
2018-08-28T20:41:44.939Z,22.60
2018-08-28T20:44:14.996Z,22.50
2018-08-28T20:46:43.246Z,22.50
2018-08-28T20:49:12.176Z,22.40
2018-08-28T20:51:40.599Z,22.40
2018-08-28T20:54:09.195Z,22.30
2018-08-28T20:56:37.650Z,22.30
2018-08-28T20:59:06.183Z,22.20
2018-08-28T21:01:34.426Z,22.20
2018-08-28T21:04:02.813Z,22.10
2018-08-28T21:06:31.089Z,22.10
2018-08-28T21:08:59.355Z,22.10
2018-08-28T21:11:27.898Z,22.10
2018-08-28T21:13:56.116Z,22.10
2018-08-28T21:16:24.375Z,22.10
2018-08-28T21:18:52.673Z,22.10
2018-08-28T21:21:20.954Z,22.10
2018-08-28T21:23:49.222Z,22.10
2018-08-28T21:26:17.969Z,22.10
2018-08-28T21:28:46.209Z,22.10
2018-08-28T21:33:53.611Z,22.10
2018-08-28T21:36:21.982Z,22.10
2018-08-28T21:38:50.303Z,22.10
2018-08-28T21:41:18.555Z,22.10
2018-08-28T21:43:46.832Z,22.00
2018-08-28T21:46:15.070Z,22.00
2018-08-28T21:48:43.367Z,22.00
2018-08-28T21:51:11.588Z,22.00
2018-08-28T21:53:40.029Z,22.00
2018-08-28T21:56:08.286Z,21.90
2018-08-28T21:58:36.529Z,21.90
2018-08-28T22:01:10.117Z,21.80
2018-08-28T22:03:38.990Z,21.80
2018-08-28T22:06:11.733Z,21.70
2018-08-28T22:08:40.114Z,21.70
2018-08-28T22:11:08.335Z,21.70
2018-08-28T22:13:36.571Z,21.60
2018-08-28T22:16:04.834Z,21.60
2018-08-28T22:18:33.434Z,21.60
2018-08-28T22:21:01.696Z,21.50
2018-08-28T22:23:29.926Z,21.50
2018-08-28T22:25:58.209Z,21.50
2018-08-28T22:28:26.441Z,21.40
2018-08-28T22:30:54.731Z,21.40
2018-08-28T22:33:22.973Z,21.40
2018-08-28T22:35:51.241Z,21.40
2018-08-28T22:38:19.450Z,21.40
2018-08-28T22:40:47.658Z,21.40
2018-08-28T22:43:23.581Z,21.30
2018-08-28T22:45:52.164Z,21.30
2018-08-28T22:48:20.430Z,21.30
2018-08-28T22:50:48.713Z,21.20
2018-08-28T22:53:16.965Z,21.20
2018-08-28T22:55:45.177Z,21.20
2018-08-28T22:58:13.440Z,21.20
2018-08-28T23:00:41.696Z,21.10
2018-08-28T23:03:09.941Z,21.10
2018-08-28T23:05:38.150Z,21.10
2018-08-28T23:08:06.942Z,21.00
2018-08-28T23:10:35.212Z,21.00
2018-08-28T23:13:03.451Z,21.00
2018-08-28T23:15:31.727Z,21.00
2018-08-28T23:17:59.987Z,21.00
2018-08-28T23:20:28.270Z,20.90
2018-08-28T23:22:56.559Z,20.80
2018-08-28T23:25:24.766Z,20.80
2018-08-28T23:27:53.008Z,20.80
2018-08-28T23:30:21.259Z,20.70
2018-08-28T23:32:49.493Z,20.70
2018-08-28T23:35:17.705Z,20.70
2018-08-28T23:37:45.926Z,20.70
2018-08-28T23:40:14.196Z,20.70
2018-08-28T23:42:42.438Z,20.70
2018-08-28T23:45:10.692Z,20.70
2018-08-28T23:47:38.932Z,20.70
2018-08-28T23:50:07.176Z,20.60
2018-08-28T23:52:35.377Z,20.60
2018-08-28T23:55:03.656Z,20.60
2018-08-28T23:57:31.933Z,20.50
